Time;durP1;ratioP1;P1;durP2;ratioP2;P2;SDS_P1;SDS_P2;PMS_P1;PMS_P2;Temp;Humidity;BMP_temperature;BMP_pressure;BME280_temperature;BME280_humidity;BME280_pressure;Samples;Min_cycle;Max_cycle;Signal;HPM_P1;HPM_P2
2022/06/14 00:01:14;;;;;;;6.20;2.90;;;;;;;11.69;100.00;100423.19;712030;1180;115362;-72
2022/06/14 00:16:36;;;;;;;10.50;2.60;;;;;;;11.58;100.00;100425.98;712214;1177;114665;-73
2022/06/14 00:31:38;;;;;;;8.90;2.47;;;;;;;11.65;100.00;100424.44;712206;1177;116202;-72
2022/06/14 00:47:03;;;;;;;7.27;2.63;;;;;;;11.65;100.00;100427.06;712179;1177;115985;-72
2022/06/14 01:02:22;;;;;;;4.23;2.18;;;;;;;11.67;100.00;100414.63;712072;1179;115974;-72
2022/06/14 01:17:25;;;;;;;5.30;1.80;;;;;;;11.74;100.00;100431.48;712040;1178;115992;-72
2022/06/14 01:32:32;;;;;;;3.50;2.00;;;;;;;11.79;100.00;100420.57;712498;1178;116309;-72
2022/06/14 01:47:51;;;;;;;9.00;3.10;;;;;;;11.77;100.00;100422.50;712503;1177;114980;-72
2022/06/14 02:18:58;;;;;;;6.95;2.50;;;;;;;11.70;100.00;100435.37;712198;1177;116140;-72
2022/06/14 02:34:11;;;;;;;8.30;2.90;;;;;;;11.74;100.00;100436.75;712288;1177;115851;-72
2022/06/14 02:49:23;;;;;;;6.65;3.70;;;;;;;11.77;100.00;100433.01;712067;1177;116736;-72
2022/06/14 03:04:34;;;;;;;5.40;2.90;;;;;;;11.80;100.00;100438.83;711987;1180;116477;-72
2022/06/14 03:20:07;;;;;;;7.45;3.15;;;;;;;11.96;100.00;100450.61;712276;1178;115825;-72
2022/06/14 03:35:18;;;;;;;6.13;2.45;;;;;;;12.08;100.00;100454.73;712065;1177;114526;-73
2022/06/14 03:50:37;;;;;;;6.97;2.77;;;;;;;12.39;100.00;100457.17;712882;1177;115877;-73
2022/06/14 04:06:03;;;;;;;4.45;2.60;;;;;;;12.68;100.00;100463.30;712779;1179;116103;-71
2022/06/14 04:21:19;;;;;;;7.78;2.60;;;;;;;12.98;100.00;100464.83;712829;1178;115139;-71
2022/06/14 04:36:39;;;;;;;5.27;2.97;;;;;;;13.30;100.00;100472.28;712703;1180;115961;-71
2022/06/14 04:52:01;;;;;;;6.30;3.20;;;;;;;13.96;100.00;100469.44;712583;1178;115918;-71
2022/06/14 05:07:11;;;;;;;7.10;2.40;;;;;;;14.12;100.00;100471.36;712869;1179;115911;-73
2022/06/14 05:22:33;;;;;;;6.93;2.77;;;;;;;14.14;100.00;100482.60;714853;1177;115449;-71
2022/06/14 05:37:57;;;;;;;3.90;2.35;;;;;;;14.28;100.00;100491.78;714231;1177;116009;-71
2022/06/14 05:53:09;;;;;;;4.48;2.50;;;;;;;14.41;100.00;100493.99;712457;1180;115179;-70
2022/06/14 06:08:34;;;;;;;6.75;2.35;;;;;;;14.72;100.00;100504.94;712930;1177;115783;-71
2022/06/14 06:23:51;;;;;;;7.97;2.57;;;;;;;15.17;100.00;100513.55;712630;1177;114547;-71
2022/06/14 06:39:12;;;;;;;5.07;2.03;;;;;;;15.68;100.00;100515.33;713137;1177;115414;-74
2022/06/14 06:54:38;;;;;;;7.53;2.10;;;;;;;16.08;100.00;100526.98;713085;1179;115943;-75
2022/06/14 07:10:14;;;;;;;6.65;2.48;;;;;;;15.96;100.00;100523.83;713845;1177;114518;-75
2022/06/14 07:25:34;;;;;;;5.83;2.60;;;;;;;15.92;100.00;100520.68;713212;1178;115364;-74
2022/06/14 07:40:48;;;;;;;7.75;2.60;;;;;;;16.44;100.00;100514.22;713436;1180;115428;-73
2022/06/14 07:56:00;;;;;;;7.20;2.77;;;;;;;16.55;97.82;100522.78;714021;1179;115789;-75
2022/06/14 08:11:16;;;;;;;4.03;2.13;;;;;;;17.33;96.04;100526.53;713537;1180;114496;-76
2022/06/14 08:26:41;;;;;;;5.50;2.35;;;;;;;17.29;91.78;100541.14;713283;1177;115151;-75
2022/06/14 08:42:25;;;;;;;8.97;2.10;;;;;;;17.18;87.85;100529.06;713569;1179;115080;-74
2022/06/14 08:57:44;;;;;;;5.25;1.85;;;;;;;17.99;86.50;100510.21;713486;1177;114696;-74
2022/06/14 09:13:16;;;;;;;2.63;1.60;;;;;;;17.80;83.97;100514.97;713194;1178;114857;-74
2022/06/14 09:28:50;;;;;;;3.63;1.68;;;;;;;18.03;80.78;100538.05;713174;1179;115512;-74
2022/06/14 09:44:02;;;;;;;;;;;;;;;17.80;78.96;100522.93;713405;1179;117016;-74
2022/06/14 09:59:42;;;;;;;4.00;2.00;;;;;;;17.04;80.61;100541.23;712776;1177;102078;-74
2022/06/14 10:14:54;;;;;;;;;;;;;;;17.13;81.63;100561.41;713148;1177;115974;-74
2022/06/14 10:30:19;;;;;;;4.73;1.93;;;;;;;17.62;80.35;100562.19;713962;1178;101650;-73
2022/06/14 10:45:47;;;;;;;5.40;2.07;;;;;;;18.12;78.87;100566.17;712706;1177;115267;-74
2022/06/14 11:01:06;;;;;;;4.68;2.00;;;;;;;18.25;79.22;100559.42;715364;1179;115148;-78
2022/06/14 11:16:32;;;;;;;4.00;1.90;;;;;;;18.19;78.14;100578.75;712932;1177;115329;-77
2022/06/14 11:32:04;;;;;;;2.78;2.13;;;;;;;18.04;76.70;100581.33;713314;1177;115875;-77
2022/06/14 11:47:27;;;;;;;3.70;2.20;;;;;;;18.13;76.75;100590.88;713064;1180;115196;-76
2022/06/14 12:02:33;;;;;;;5.13;1.83;;;;;;;17.65;77.17;100612.22;713015;1177;115085;-75
2022/06/14 12:17:49;;;;;;;4.07;2.10;;;;;;;17.03;79.78;100618.27;713711;1179;115240;-75
2022/06/14 12:33:09;;;;;;;6.70;3.27;;;;;;;17.80;79.33;100621.10;713179;1177;115740;-76
2022/06/14 12:48:30;;;;;;;5.30;2.17;;;;;;;18.65;76.18;100629.14;713819;1177;115648;-76
2022/06/14 13:03:50;;;;;;;3.25;1.40;;;;;;;18.03;74.77;100620.33;712673;1177;115980;-76
2022/06/14 13:19:17;;;;;;;3.17;1.60;;;;;;;18.78;73.65;100625.88;712884;1177;114328;-76
2022/06/14 13:34:28;;;;;;;4.33;1.55;;;;;;;19.77;72.27;100636.22;713516;1177;114415;-81
2022/06/14 13:49:36;;;;;;;8.37;4.17;;;;;;;19.67;70.21;100626.89;713061;1178;114295;-74
2022/06/14 14:05:17;;;;;;;5.30;2.83;;;;;;;19.38;69.45;100634.72;713474;1178;114611;-74
2022/06/14 14:20:51;;;;;;;3.75;2.23;;;;;;;19.23;70.11;100629.41;712902;1180;115092;-74
2022/06/14 14:36:04;;;;;;;1.88;1.50;;;;;;;19.61;70.51;100631.10;712635;1177;114396;-78
2022/06/14 14:51:37;;;;;;;4.85;1.60;;;;;;;18.88;70.77;100628.27;713162;1177;115312;-76
2022/06/14 15:06:45;;;;;;;4.40;1.95;;;;;;;18.78;72.43;100634.66;712960;1178;115620;-77
2022/06/14 15:21:58;;;;;;;5.75;2.40;;;;;;;18.89;72.31;100640.58;713185;1177;115134;-76
2022/06/14 15:37:15;;;;;;;49.83;19.50;;;;;;;19.00;71.79;100624.17;712927;1180;116595;-74
2022/06/14 15:52:24;;;;;;;6.23;3.33;;;;;;;18.46;73.48;100638.42;712642;1180;115476;-75
2022/06/14 16:07:30;;;;;;;;;;;;;;;18.41;73.22;100646.94;713330;1177;114445;-76
2022/06/14 16:22:33;;;;;;;1.95;1.60;;;;;;;18.23;72.89;100638.45;713115;1177;102054;-76
2022/06/14 16:37:55;;;;;;;5.00;1.40;;;;;;;18.17;73.04;100645.27;712731;1180;116194;-75
2022/06/14 16:53:20;;;;;;;3.10;1.63;;;;;;;18.05;72.82;100642.20;713061;1177;115799;-75
2022/06/14 17:08:40;;;;;;;4.45;2.23;;;;;;;18.31;75.34;100650.84;712957;1177;114362;-75
2022/06/14 17:23:53;;;;;;;5.70;2.60;;;;;;;17.94;76.82;100653.23;712581;1178;114304;-75
2022/06/14 17:39:03;;;;;;;2.27;1.67;;;;;;;17.67;76.96;100660.64;712497;1180;114243;-78
2022/06/14 17:54:19;;;;;;;5.27;2.23;;;;;;;17.34;77.17;100666.06;713078;1178;114988;-77
2022/06/14 18:09:47;;;;;;;5.15;2.30;;;;;;;16.75;78.99;100666.30;713237;1178;115531;-76
2022/06/14 18:25:01;;;;;;;8.88;2.20;;;;;;;16.44;80.88;100673.08;713427;1177;114463;-75
2022/06/14 18:40:16;;;;;;;4.00;1.80;;;;;;;16.31;81.77;100680.65;713251;1177;115900;-77
2022/06/14 18:55:19;;;;;;;4.83;3.00;;;;;;;15.85;84.31;100701.38;712987;1178;114747;-76
2022/06/14 19:10:54;;;;;;;3.70;2.10;;;;;;;15.42;85.94;100712.71;713664;1178;114381;-76
2022/06/14 19:26:30;;;;;;;4.35;2.43;;;;;;;15.02;88.36;100714.12;714443;1180;114292;-76
2022/06/14 19:41:58;;;;;;;8.00;3.10;;;;;;;14.73;90.08;100717.84;717871;1178;114857;-76
2022/06/14 19:57:10;;;;;;;8.50;4.63;;;;;;;14.48;92.25;100720.22;713635;1179;115844;-75
2022/06/14 20:12:21;;;;;;;18.70;10.60;;;;;;;14.30;93.42;100716.73;713063;1179;115981;-76
2022/06/14 20:27:23;;;;;;;91.70;43.10;;;;;;;13.99;94.14;100724.98;712810;1180;115638;-76
2022/06/14 20:42:31;;;;;;;13.00;8.30;;;;;;;13.72;95.88;100729.25;712330;1177;114948;-77
2022/06/14 20:57:41;;;;;;;15.33;5.73;;;;;;;13.69;96.12;100724.28;712808;1179;114511;-75
2022/06/14 21:12:43;;;;;;;7.75;4.05;;;;;;;13.44;98.71;100737.11;712408;1179;114476;-76
2022/06/14 21:27:49;;;;;;;10.70;5.23;;;;;;;13.31;100.00;100741.84;712212;1180;114222;-76
2022/06/14 21:42:55;;;;;;;10.40;5.17;;;;;;;13.24;100.00;100749.48;712255;1177;115308;-76
2022/06/14 21:58:01;;;;;;;8.47;3.90;;;;;;;13.02;100.00;100742.70;712303;1179;115435;-75
2022/06/14 22:13:12;;;;;;;7.05;3.90;;;;;;;12.85;100.00;100744.23;711952;1178;115877;-75
2022/06/14 22:28:15;;;;;;;126.90;49.90;;;;;;;12.86;100.00;100747.72;712244;1177;115563;-74
2022/06/14 22:43:17;;;;;;;13.37;6.03;;;;;;;12.67;100.00;100749.38;712216;1177;115636;-74
2022/06/14 22:58:24;;;;;;;16.83;9.40;;;;;;;12.53;100.00;100760.30;712301;1177;115410;-74
2022/06/14 23:13:29;;;;;;;7.67;4.50;;;;;;;12.49;100.00;100754.47;712129;1178;115579;-74
2022/06/14 23:28:32;;;;;;;12.67;5.70;;;;;;;12.26;100.00;100756.48;712317;1178;115636;-75
2022/06/14 23:43:35;;;;;;;5.50;3.20;;;;;;;12.29;100.00;100750.98;712146;1177;115326;-76
2022/06/14 23:58:39;;;;;;;9.17;3.93;;;;;;;12.27;100.00;100751.12;712385;1180;115408;-74
